ブエノスアイレス/エセイサ の空港の天気 - METARとTAF

エセイサ国際空港 ( SAEZ / EZE ) - アルゼンチン ブエノスアイレス州、Ezeiza
飛行場実況気象(Metar)
観測時間01/23 02:00 ART (01/23 05:00 UTC)
風向・風速東北東 3m/s
視程10km以上
天気現象
なし
気温23℃
湿度78%
気圧1002hPa
METARSAEZ 230500Z 07005KT CAVOK 23/19 Q1002
過去の天気等 Google飛行場航空写真 Wunderground天気予報

過去48時間のMETAR

飛行場予報(TAF)
発表時間: 1/23 02:00 ART (1/23 05:00 UTC)
予報対象時間: 23日3時 ART ~ 24日3時 ART
風向・風速東北東 3m/s
視程10km以上
なし
24日4時 ART ~ 24日7時 ART に一時的に
視程4,000m
天気現象もや
なし
23日9時 ART ~ 23日11時 ART に徐々に
風向・風速北北西 5m/s
視程10km以上
全天の4割程度の雲 雲底高度 1,070m
23日13時 ART ~ 23日18時 ART に一時的に
風向・風速西 59m/s
視程7,000m
天気現象雷雨
全天の4割程度の雲 雲底高度 760m
少しの積乱雲 雲底高度 1,220m
全天の8割程度の雲 雲底高度 1,520m
23日19時 ART ~ 23日21時 ART に徐々に
風向・風速南 8m/s
視程10km以上
全天の4割程度の雲 雲底高度 1,070m
全天の8割程度の雲 雲底高度 2,130m
TAF COR SAEZ 230500Z 2306/2406 06005KT CAVOK TX33/2317Z TN22/2308Z
TEMPO 2407/2410 4000 BR NSC
BECMG 2312/2314 34010KT 9999 SCT035
TEMPO 2316/2321 270115KT 7000 TSRA SCT025 FEW040CB BKN050
BECMG 2322/2324 19015KT 9999 SCT035 BKN070